sensor_id;sensor_type;location;lat;lon;timestamp;P1;durP1;ratioP1;P2;durP2;ratioP2
79212;SDS011;68639;52.380;9.822;2023-09-19T00:02:11;3.47;;;1.80;;
79212;SDS011;68639;52.380;9.822;2023-09-19T00:04:37;4.43;;;1.20;;
79212;SDS011;68639;52.380;9.822;2023-09-19T00:07:04;3.33;;;1.20;;
79212;SDS011;68639;52.380;9.822;2023-09-19T00:09:29;4.45;;;1.58;;
79212;SDS011;68639;52.380;9.822;2023-09-19T00:11:55;2.03;;;1.10;;
79212;SDS011;68639;52.380;9.822;2023-09-19T00:14:20;3.10;;;1.30;;
79212;SDS011;68639;52.380;9.822;2023-09-19T00:16:45;2.67;;;1.20;;
79212;SDS011;68639;52.380;9.822;2023-09-19T00:19:11;5.95;;;1.00;;
79212;SDS011;68639;52.380;9.822;2023-09-19T00:21:39;4.50;;;1.10;;
79212;SDS011;68639;52.380;9.822;2023-09-19T00:24:06;3.78;;;1.33;;
79212;SDS011;68639;52.380;9.822;2023-09-19T00:26:32;3.97;;;1.30;;
79212;SDS011;68639;52.380;9.822;2023-09-19T00:28:57;7.63;;;1.80;;
79212;SDS011;68639;52.380;9.822;2023-09-19T00:31:22;5.95;;;2.08;;
79212;SDS011;68639;52.380;9.822;2023-09-19T00:33:48;6.60;;;2.30;;
79212;SDS011;68639;52.380;9.822;2023-09-19T00:36:13;3.85;;;1.75;;
79212;SDS011;68639;52.380;9.822;2023-09-19T00:38:39;8.35;;;2.17;;
79212;SDS011;68639;52.380;9.822;2023-09-19T00:41:04;6.40;;;2.33;;
79212;SDS011;68639;52.380;9.822;2023-09-19T00:43:29;7.63;;;2.42;;
79212;SDS011;68639;52.380;9.822;2023-09-19T00:45:55;5.43;;;2.67;;
79212;SDS011;68639;52.380;9.822;2023-09-19T00:48:20;8.63;;;2.55;;
79212;SDS011;68639;52.380;9.822;2023-09-19T00:50:46;7.60;;;3.33;;
79212;SDS011;68639;52.380;9.822;2023-09-19T00:53:13;8.02;;;4.50;;
79212;SDS011;68639;52.380;9.822;2023-09-19T00:55:39;7.57;;;3.03;;
79212;SDS011;68639;52.380;9.822;2023-09-19T00:58:05;8.68;;;2.90;;
79212;SDS011;68639;52.380;9.822;2023-09-19T01:00:32;7.13;;;2.30;;
79212;SDS011;68639;52.380;9.822;2023-09-19T01:02:58;6.20;;;2.40;;
79212;SDS011;68639;52.380;9.822;2023-09-19T01:05:24;9.50;;;2.80;;
79212;SDS011;68639;52.380;9.822;2023-09-19T01:07:50;5.65;;;2.45;;
79212;SDS011;68639;52.380;9.822;2023-09-19T01:10:18;6.97;;;2.78;;
79212;SDS011;68639;52.380;9.822;2023-09-19T01:12:57;5.32;;;2.70;;
79212;SDS011;68639;52.380;9.822;2023-09-19T01:15:32;5.80;;;2.45;;
79212;SDS011;68639;52.380;9.822;2023-09-19T01:18:16;7.97;;;2.97;;
79212;SDS011;68639;52.380;9.822;2023-09-19T01:20:51;8.50;;;3.10;;
79212;SDS011;68639;52.380;9.822;2023-09-19T01:23:21;8.40;;;3.05;;
79212;SDS011;68639;52.380;9.822;2023-09-19T01:28:34;7.97;;;3.15;;
79212;SDS011;68639;52.380;9.822;2023-09-19T01:31:03;6.68;;;3.00;;
79212;SDS011;68639;52.380;9.822;2023-09-19T01:33:31;7.97;;;2.95;;
79212;SDS011;68639;52.380;9.822;2023-09-19T01:36:16;8.90;;;3.30;;
79212;SDS011;68639;52.380;9.822;2023-09-19T01:38:41;10.95;;;3.60;;
79212;SDS011;68639;52.380;9.822;2023-09-19T01:41:07;11.20;;;3.53;;
79212;SDS011;68639;52.380;9.822;2023-09-19T01:43:37;9.73;;;3.72;;
79212;SDS011;68639;52.380;9.822;2023-09-19T01:46:09;10.82;;;3.90;;
79212;SDS011;68639;52.380;9.822;2023-09-19T01:48:41;6.95;;;3.08;;
79212;SDS011;68639;52.380;9.822;2023-09-19T01:51:07;7.70;;;3.45;;
79212;SDS011;68639;52.380;9.822;2023-09-19T01:56:04;12.35;;;4.30;;
79212;SDS011;68639;52.380;9.822;2023-09-19T01:58:45;9.73;;;3.72;;
79212;SDS011;68639;52.380;9.822;2023-09-19T02:01:11;9.02;;;4.45;;
79212;SDS011;68639;52.380;9.822;2023-09-19T02:03:40;13.63;;;3.80;;
79212;SDS011;68639;52.380;9.822;2023-09-19T02:06:05;10.38;;;3.75;;
79212;SDS011;68639;52.380;9.822;2023-09-19T02:08:36;12.70;;;4.07;;
79212;SDS011;68639;52.380;9.822;2023-09-19T02:11:01;11.85;;;3.80;;
79212;SDS011;68639;52.380;9.822;2023-09-19T02:13:26;9.13;;;3.88;;
79212;SDS011;68639;52.380;9.822;2023-09-19T02:15:53;13.63;;;4.32;;
79212;SDS011;68639;52.380;9.822;2023-09-19T02:18:18;10.43;;;3.83;;
79212;SDS011;68639;52.380;9.822;2023-09-19T02:20:43;12.85;;;3.90;;
79212;SDS011;68639;52.380;9.822;2023-09-19T02:23:09;9.10;;;3.95;;
79212;SDS011;68639;52.380;9.822;2023-09-19T02:25:34;11.80;;;4.10;;
79212;SDS011;68639;52.380;9.822;2023-09-19T02:28:05;15.95;;;4.47;;
79212;SDS011;68639;52.380;9.822;2023-09-19T02:30:30;9.30;;;3.88;;
79212;SDS011;68639;52.380;9.822;2023-09-19T02:32:56;13.05;;;3.88;;
79212;SDS011;68639;52.380;9.822;2023-09-19T02:35:21;12.88;;;3.83;;
79212;SDS011;68639;52.380;9.822;2023-09-19T02:37:47;9.00;;;3.90;;
79212;SDS011;68639;52.380;9.822;2023-09-19T02:40:12;11.70;;;3.90;;
79212;SDS011;68639;52.380;9.822;2023-09-19T02:42:53;10.10;;;3.75;;
79212;SDS011;68639;52.380;9.822;2023-09-19T02:45:19;10.73;;;4.40;;
79212;SDS011;68639;52.380;9.822;2023-09-19T02:47:44;9.48;;;3.90;;
79212;SDS011;68639;52.380;9.822;2023-09-19T02:50:10;10.02;;;4.13;;
79212;SDS011;68639;52.380;9.822;2023-09-19T02:52:43;16.52;;;4.85;;
79212;SDS011;68639;52.380;9.822;2023-09-19T02:55:10;11.32;;;4.28;;
79212;SDS011;68639;52.380;9.822;2023-09-19T02:57:35;14.48;;;4.30;;
79212;SDS011;68639;52.380;9.822;2023-09-19T03:00:05;11.27;;;4.60;;
79212;SDS011;68639;52.380;9.822;2023-09-19T03:02:32;11.02;;;4.35;;
79212;SDS011;68639;52.380;9.822;2023-09-19T03:04:59;9.15;;;4.07;;
79212;SDS011;68639;52.380;9.822;2023-09-19T03:07:25;11.85;;;4.55;;
79212;SDS011;68639;52.380;9.822;2023-09-19T03:09:50;15.70;;;4.28;;
79212;SDS011;68639;52.380;9.822;2023-09-19T03:12:17;10.73;;;5.05;;
79212;SDS011;68639;52.380;9.822;2023-09-19T03:14:43;10.20;;;3.90;;
79212;SDS011;68639;52.380;9.822;2023-09-19T03:17:08;11.35;;;4.10;;
79212;SDS011;68639;52.380;9.822;2023-09-19T03:19:34;12.65;;;4.38;;
79212;SDS011;68639;52.380;9.822;2023-09-19T03:21:59;10.38;;;4.20;;
79212;SDS011;68639;52.380;9.822;2023-09-19T03:24:24;13.25;;;4.28;;
79212;SDS011;68639;52.380;9.822;2023-09-19T03:26:50;12.20;;;4.00;;
79212;SDS011;68639;52.380;9.822;2023-09-19T03:29:16;12.38;;;4.13;;
79212;SDS011;68639;52.380;9.822;2023-09-19T03:31:42;14.02;;;4.18;;
79212;SDS011;68639;52.380;9.822;2023-09-19T03:34:07;11.13;;;3.90;;
79212;SDS011;68639;52.380;9.822;2023-09-19T03:36:34;14.25;;;4.18;;
79212;SDS011;68639;52.380;9.822;2023-09-19T03:38:59;10.10;;;3.83;;
79212;SDS011;68639;52.380;9.822;2023-09-19T03:41:24;9.07;;;4.15;;
79212;SDS011;68639;52.380;9.822;2023-09-19T03:43:49;12.95;;;3.60;;
79212;SDS011;68639;52.380;9.822;2023-09-19T03:46:15;9.48;;;3.35;;
79212;SDS011;68639;52.380;9.822;2023-09-19T03:48:40;11.52;;;3.88;;
79212;SDS011;68639;52.380;9.822;2023-09-19T03:51:05;10.00;;;3.20;;
79212;SDS011;68639;52.380;9.822;2023-09-19T03:53:30;10.82;;;3.65;;
79212;SDS011;68639;52.380;9.822;2023-09-19T03:55:56;14.43;;;3.75;;
79212;SDS011;68639;52.380;9.822;2023-09-19T03:58:22;9.07;;;3.17;;
79212;SDS011;68639;52.380;9.822;2023-09-19T04:00:47;13.70;;;3.15;;
79212;SDS011;68639;52.380;9.822;2023-09-19T04:03:14;12.48;;;2.83;;
79212;SDS011;68639;52.380;9.822;2023-09-19T04:05:44;11.80;;;3.10;;
79212;SDS011;68639;52.380;9.822;2023-09-19T04:08:09;10.93;;;2.80;;
79212;SDS011;68639;52.380;9.822;2023-09-19T04:10:35;11.90;;;3.38;;
79212;SDS011;68639;52.380;9.822;2023-09-19T04:13:00;10.27;;;3.33;;
79212;SDS011;68639;52.380;9.822;2023-09-19T04:15:26;10.65;;;3.47;;
79212;SDS011;68639;52.380;9.822;2023-09-19T04:17:51;15.25;;;3.65;;
79212;SDS011;68639;52.380;9.822;2023-09-19T04:20:19;11.43;;;3.38;;
79212;SDS011;68639;52.380;9.822;2023-09-19T04:22:44;9.65;;;3.28;;
79212;SDS011;68639;52.380;9.822;2023-09-19T04:25:10;11.30;;;3.60;;
79212;SDS011;68639;52.380;9.822;2023-09-19T04:27:35;10.18;;;3.35;;
79212;SDS011;68639;52.380;9.822;2023-09-19T04:30:00;12.60;;;3.83;;
79212;SDS011;68639;52.380;9.822;2023-09-19T04:32:34;14.27;;;4.13;;
79212;SDS011;68639;52.380;9.822;2023-09-19T04:35:01;11.93;;;3.47;;
79212;SDS011;68639;52.380;9.822;2023-09-19T04:37:30;14.32;;;4.07;;
79212;SDS011;68639;52.380;9.822;2023-09-19T04:39:55;13.05;;;3.78;;
79212;SDS011;68639;52.380;9.822;2023-09-19T04:42:20;15.10;;;3.60;;
79212;SDS011;68639;52.380;9.822;2023-09-19T04:44:46;11.55;;;3.53;;
79212;SDS011;68639;52.380;9.822;2023-09-19T04:47:14;12.10;;;3.65;;
79212;SDS011;68639;52.380;9.822;2023-09-19T04:49:41;13.55;;;4.03;;
79212;SDS011;68639;52.380;9.822;2023-09-19T04:52:06;14.77;;;3.30;;
79212;SDS011;68639;52.380;9.822;2023-09-19T04:54:31;12.43;;;3.50;;
79212;SDS011;68639;52.380;9.822;2023-09-19T04:56:58;15.20;;;4.55;;
79212;SDS011;68639;52.380;9.822;2023-09-19T04:59:24;12.57;;;3.92;;
79212;SDS011;68639;52.380;9.822;2023-09-19T05:01:49;15.45;;;4.38;;
79212;SDS011;68639;52.380;9.822;2023-09-19T05:04:14;13.25;;;3.78;;
79212;SDS011;68639;52.380;9.822;2023-09-19T05:06:39;16.33;;;3.92;;
79212;SDS011;68639;52.380;9.822;2023-09-19T05:09:04;13.50;;;4.43;;
79212;SDS011;68639;52.380;9.822;2023-09-19T05:11:30;13.45;;;4.70;;
79212;SDS011;68639;52.380;9.822;2023-09-19T05:13:55;17.85;;;4.65;;
79212;SDS011;68639;52.380;9.822;2023-09-19T05:16:21;18.05;;;4.97;;
79212;SDS011;68639;52.380;9.822;2023-09-19T05:18:46;12.23;;;4.93;;
79212;SDS011;68639;52.380;9.822;2023-09-19T05:21:11;16.23;;;5.45;;
79212;SDS011;68639;52.380;9.822;2023-09-19T05:23:37;18.00;;;5.60;;
79212;SDS011;68639;52.380;9.822;2023-09-19T05:26:02;14.85;;;5.68;;
79212;SDS011;68639;52.380;9.822;2023-09-19T05:28:28;19.15;;;5.63;;
79212;SDS011;68639;52.380;9.822;2023-09-19T05:30:54;16.67;;;5.85;;
79212;SDS011;68639;52.380;9.822;2023-09-19T05:33:20;16.08;;;5.45;;
79212;SDS011;68639;52.380;9.822;2023-09-19T05:35:45;16.77;;;5.72;;
79212;SDS011;68639;52.380;9.822;2023-09-19T05:38:12;35.80;;;8.68;;
79212;SDS011;68639;52.380;9.822;2023-09-19T05:40:38;13.55;;;5.30;;
79212;SDS011;68639;52.380;9.822;2023-09-19T05:43:07;12.98;;;5.22;;
79212;SDS011;68639;52.380;9.822;2023-09-19T05:45:33;13.93;;;5.75;;
79212;SDS011;68639;52.380;9.822;2023-09-19T05:48:06;13.95;;;5.50;;
79212;SDS011;68639;52.380;9.822;2023-09-19T05:50:32;15.32;;;5.25;;
79212;SDS011;68639;52.380;9.822;2023-09-19T05:52:58;12.18;;;5.53;;
79212;SDS011;68639;52.380;9.822;2023-09-19T05:55:23;11.57;;;5.35;;
79212;SDS011;68639;52.380;9.822;2023-09-19T05:57:51;14.23;;;5.35;;
79212;SDS011;68639;52.380;9.822;2023-09-19T06:00:17;13.27;;;5.13;;
79212;SDS011;68639;52.380;9.822;2023-09-19T06:02:43;16.80;;;5.70;;
79212;SDS011;68639;52.380;9.822;2023-09-19T06:05:09;20.17;;;5.75;;
79212;SDS011;68639;52.380;9.822;2023-09-19T06:07:35;15.32;;;5.70;;
79212;SDS011;68639;52.380;9.822;2023-09-19T06:10:02;13.98;;;5.65;;
79212;SDS011;68639;52.380;9.822;2023-09-19T06:12:30;19.48;;;5.75;;
79212;SDS011;68639;52.380;9.822;2023-09-19T06:14:58;13.00;;;5.20;;
79212;SDS011;68639;52.380;9.822;2023-09-19T06:17:24;17.23;;;5.88;;
79212;SDS011;68639;52.380;9.822;2023-09-19T06:19:49;15.90;;;5.40;;
79212;SDS011;68639;52.380;9.822;2023-09-19T06:22:16;15.48;;;5.40;;
79212;SDS011;68639;52.380;9.822;2023-09-19T06:24:43;15.65;;;5.20;;
79212;SDS011;68639;52.380;9.822;2023-09-19T06:27:08;18.02;;;5.35;;
79212;SDS011;68639;52.380;9.822;2023-09-19T06:29:34;18.63;;;5.32;;
79212;SDS011;68639;52.380;9.822;2023-09-19T06:31:59;19.50;;;5.63;;
79212;SDS011;68639;52.380;9.822;2023-09-19T06:34:24;21.95;;;5.90;;
79212;SDS011;68639;52.380;9.822;2023-09-19T06:36:51;17.80;;;5.35;;
79212;SDS011;68639;52.380;9.822;2023-09-19T06:39:16;21.08;;;5.43;;
79212;SDS011;68639;52.380;9.822;2023-09-19T06:41:41;15.48;;;4.97;;
79212;SDS011;68639;52.380;9.822;2023-09-19T06:44:07;16.45;;;4.80;;
79212;SDS011;68639;52.380;9.822;2023-09-19T06:46:32;20.10;;;5.32;;
79212;SDS011;68639;52.380;9.822;2023-09-19T06:49:00;17.10;;;5.05;;
79212;SDS011;68639;52.380;9.822;2023-09-19T06:51:25;16.73;;;4.78;;
79212;SDS011;68639;52.380;9.822;2023-09-19T06:53:50;15.93;;;4.80;;
79212;SDS011;68639;52.380;9.822;2023-09-19T06:56:19;15.38;;;4.68;;
79212;SDS011;68639;52.380;9.822;2023-09-19T06:58:45;17.70;;;4.90;;
79212;SDS011;68639;52.380;9.822;2023-09-19T07:01:10;19.35;;;4.38;;
79212;SDS011;68639;52.380;9.822;2023-09-19T07:03:35;16.95;;;4.75;;
79212;SDS011;68639;52.380;9.822;2023-09-19T07:06:01;14.27;;;3.75;;
79212;SDS011;68639;52.380;9.822;2023-09-19T07:08:29;13.48;;;4.13;;
79212;SDS011;68639;52.380;9.822;2023-09-19T07:10:55;15.00;;;3.88;;
79212;SDS011;68639;52.380;9.822;2023-09-19T07:13:21;12.80;;;3.67;;
79212;SDS011;68639;52.380;9.822;2023-09-19T07:15:46;16.00;;;3.80;;
79212;SDS011;68639;52.380;9.822;2023-09-19T07:18:12;13.27;;;3.33;;
79212;SDS011;68639;52.380;9.822;2023-09-19T07:20:39;11.10;;;3.03;;
79212;SDS011;68639;52.380;9.822;2023-09-19T07:23:04;10.77;;;2.95;;
79212;SDS011;68639;52.380;9.822;2023-09-19T07:25:31;16.88;;;3.38;;
79212;SDS011;68639;52.380;9.822;2023-09-19T07:27:56;11.35;;;2.78;;
79212;SDS011;68639;52.380;9.822;2023-09-19T07:30:25;16.77;;;3.60;;
79212;SDS011;68639;52.380;9.822;2023-09-19T07:32:51;11.07;;;2.50;;
79212;SDS011;68639;52.380;9.822;2023-09-19T07:35:16;14.02;;;4.32;;
79212;SDS011;68639;52.380;9.822;2023-09-19T07:37:41;15.60;;;3.20;;
79212;SDS011;68639;52.380;9.822;2023-09-19T07:40:07;15.30;;;3.17;;
79212;SDS011;68639;52.380;9.822;2023-09-19T07:42:35;13.23;;;2.47;;
79212;SDS011;68639;52.380;9.822;2023-09-19T07:45:02;14.38;;;2.70;;
79212;SDS011;68639;52.380;9.822;2023-09-19T07:47:27;14.25;;;2.63;;
79212;SDS011;68639;52.380;9.822;2023-09-19T07:49:55;13.82;;;2.53;;
79212;SDS011;68639;52.380;9.822;2023-09-19T07:52:20;17.20;;;2.85;;
79212;SDS011;68639;52.380;9.822;2023-09-19T07:54:48;13.77;;;2.47;;
79212;SDS011;68639;52.380;9.822;2023-09-19T07:57:14;14.40;;;2.63;;
79212;SDS011;68639;52.380;9.822;2023-09-19T07:59:40;14.38;;;2.92;;
79212;SDS011;68639;52.380;9.822;2023-09-19T08:02:07;17.70;;;2.65;;
79212;SDS011;68639;52.380;9.822;2023-09-19T08:04:34;14.57;;;2.55;;
79212;SDS011;68639;52.380;9.822;2023-09-19T08:06:59;13.48;;;3.05;;
79212;SDS011;68639;52.380;9.822;2023-09-19T08:09:25;10.27;;;2.75;;
79212;SDS011;68639;52.380;9.822;2023-09-19T08:11:50;11.20;;;2.50;;
79212;SDS011;68639;52.380;9.822;2023-09-19T08:14:16;11.77;;;2.55;;
79212;SDS011;68639;52.380;9.822;2023-09-19T08:16:41;17.02;;;2.85;;
79212;SDS011;68639;52.380;9.822;2023-09-19T08:19:07;17.95;;;2.90;;
79212;SDS011;68639;52.380;9.822;2023-09-19T08:21:33;12.10;;;2.70;;
79212;SDS011;68639;52.380;9.822;2023-09-19T08:23:58;15.00;;;2.65;;
79212;SDS011;68639;52.380;9.822;2023-09-19T08:26:23;11.55;;;2.33;;
79212;SDS011;68639;52.380;9.822;2023-09-19T08:28:49;13.27;;;2.72;;
79212;SDS011;68639;52.380;9.822;2023-09-19T08:31:16;8.20;;;2.00;;
79212;SDS011;68639;52.380;9.822;2023-09-19T08:33:42;15.18;;;2.80;;
79212;SDS011;68639;52.380;9.822;2023-09-19T08:36:10;10.25;;;2.63;;
79212;SDS011;68639;52.380;9.822;2023-09-19T08:38:39;14.07;;;2.25;;
79212;SDS011;68639;52.380;9.822;2023-09-19T08:41:07;14.23;;;2.15;;
79212;SDS011;68639;52.380;9.822;2023-09-19T08:43:32;12.52;;;2.45;;
79212;SDS011;68639;52.380;9.822;2023-09-19T08:46:02;10.25;;;2.05;;
79212;SDS011;68639;52.380;9.822;2023-09-19T08:48:29;17.55;;;2.25;;
79212;SDS011;68639;52.380;9.822;2023-09-19T08:51:07;11.05;;;2.15;;
79212;SDS011;68639;52.380;9.822;2023-09-19T08:53:41;9.00;;;2.28;;
79212;SDS011;68639;52.380;9.822;2023-09-19T08:56:08;16.13;;;2.25;;
79212;SDS011;68639;52.380;9.822;2023-09-19T08:58:46;8.52;;;1.50;;
79212;SDS011;68639;52.380;9.822;2023-09-19T09:01:13;8.20;;;1.95;;
79212;SDS011;68639;52.380;9.822;2023-09-19T09:03:39;11.80;;;2.28;;
79212;SDS011;68639;52.380;9.822;2023-09-19T09:06:06;11.70;;;2.33;;
79212;SDS011;68639;52.380;9.822;2023-09-19T09:08:32;10.00;;;2.22;;
79212;SDS011;68639;52.380;9.822;2023-09-19T09:10:58;12.20;;;2.65;;
79212;SDS011;68639;52.380;9.822;2023-09-19T09:13:23;10.02;;;2.30;;
79212;SDS011;68639;52.380;9.822;2023-09-19T09:15:51;9.40;;;2.10;;
79212;SDS011;68639;52.380;9.822;2023-09-19T09:18:16;10.35;;;2.13;;
79212;SDS011;68639;52.380;9.822;2023-09-19T09:20:43;14.18;;;2.60;;
79212;SDS011;68639;52.380;9.822;2023-09-19T09:23:09;11.38;;;2.30;;
79212;SDS011;68639;52.380;9.822;2023-09-19T09:28:12;8.32;;;2.05;;
79212;SDS011;68639;52.380;9.822;2023-09-19T09:30:44;8.18;;;1.92;;
79212;SDS011;68639;52.380;9.822;2023-09-19T09:33:10;11.15;;;2.15;;
79212;SDS011;68639;52.380;9.822;2023-09-19T09:35:57;11.80;;;2.22;;
79212;SDS011;68639;52.380;9.822;2023-09-19T09:38:26;11.10;;;2.33;;
79212;SDS011;68639;52.380;9.822;2023-09-19T09:40:58;10.07;;;2.28;;
79212;SDS011;68639;52.380;9.822;2023-09-19T09:46:05;11.13;;;2.38;;
79212;SDS011;68639;52.380;9.822;2023-09-19T09:51:39;10.25;;;2.35;;
79212;SDS011;68639;52.380;9.822;2023-09-19T09:54:10;10.65;;;2.00;;
79212;SDS011;68639;52.380;9.822;2023-09-19T09:56:51;10.27;;;2.10;;
79212;SDS011;68639;52.380;9.822;2023-09-19T09:59:17;9.48;;;2.40;;
79212;SDS011;68639;52.380;9.822;2023-09-19T10:01:46;10.80;;;2.05;;
79212;SDS011;68639;52.380;9.822;2023-09-19T10:04:12;7.68;;;2.03;;
79212;SDS011;68639;52.380;9.822;2023-09-19T10:06:53;10.38;;;2.40;;
79212;SDS011;68639;52.380;9.822;2023-09-19T10:09:19;7.72;;;2.17;;
79212;SDS011;68639;52.380;9.822;2023-09-19T10:12:05;11.15;;;2.50;;
79212;SDS011;68639;52.380;9.822;2023-09-19T10:14:30;12.02;;;3.22;;
79212;SDS011;68639;52.380;9.822;2023-09-19T10:16:59;14.45;;;2.50;;
79212;SDS011;68639;52.380;9.822;2023-09-19T10:19:37;11.52;;;2.47;;
79212;SDS011;68639;52.380;9.822;2023-09-19T10:22:11;9.50;;;2.03;;
79212;SDS011;68639;52.380;9.822;2023-09-19T10:24:39;10.10;;;2.38;;
79212;SDS011;68639;52.380;9.822;2023-09-19T10:27:05;8.57;;;2.10;;
79212;SDS011;68639;52.380;9.822;2023-09-19T10:29:33;10.85;;;2.20;;
79212;SDS011;68639;52.380;9.822;2023-09-19T10:32:01;10.48;;;2.08;;
79212;SDS011;68639;52.380;9.822;2023-09-19T10:34:30;11.05;;;2.75;;
79212;SDS011;68639;52.380;9.822;2023-09-19T10:36:56;11.80;;;2.55;;
79212;SDS011;68639;52.380;9.822;2023-09-19T10:39:22;10.93;;;2.53;;
79212;SDS011;68639;52.380;9.822;2023-09-19T10:41:52;9.35;;;2.05;;
79212;SDS011;68639;52.380;9.822;2023-09-19T10:44:21;13.27;;;2.85;;
79212;SDS011;68639;52.380;9.822;2023-09-19T10:46:47;8.52;;;2.10;;
79212;SDS011;68639;52.380;9.822;2023-09-19T10:49:13;10.93;;;2.40;;
79212;SDS011;68639;52.380;9.822;2023-09-19T10:51:39;14.93;;;2.55;;
79212;SDS011;68639;52.380;9.822;2023-09-19T10:54:06;11.15;;;3.10;;
79212;SDS011;68639;52.380;9.822;2023-09-19T10:56:37;12.82;;;2.58;;
79212;SDS011;68639;52.380;9.822;2023-09-19T10:59:10;9.90;;;2.45;;
79212;SDS011;68639;52.380;9.822;2023-09-19T11:07:03;11.38;;;2.40;;
79212;SDS011;68639;52.380;9.822;2023-09-19T11:15:06;13.23;;;2.50;;
79212;SDS011;68639;52.380;9.822;2023-09-19T11:17:39;9.82;;;2.45;;
79212;SDS011;68639;52.380;9.822;2023-09-19T11:30:46;9.88;;;2.63;;
79212;SDS011;68639;52.380;9.822;2023-09-19T11:33:23;10.95;;;2.25;;
79212;SDS011;68639;52.380;9.822;2023-09-19T11:36:09;7.03;;;2.05;;
79212;SDS011;68639;52.380;9.822;2023-09-19T11:43:49;15.30;;;3.53;;
79212;SDS011;68639;52.380;9.822;2023-09-19T11:46:15;8.02;;;2.15;;
79212;SDS011;68639;52.380;9.822;2023-09-19T11:48:43;10.13;;;2.05;;
79212;SDS011;68639;52.380;9.822;2023-09-19T11:51:12;9.48;;;2.42;;
79212;SDS011;68639;52.380;9.822;2023-09-19T11:53:44;10.82;;;2.35;;
79212;SDS011;68639;52.380;9.822;2023-09-19T11:56:10;9.98;;;2.55;;
79212;SDS011;68639;52.380;9.822;2023-09-19T11:58:35;10.02;;;2.15;;
79212;SDS011;68639;52.380;9.822;2023-09-19T12:01:02;10.32;;;2.53;;
79212;SDS011;68639;52.380;9.822;2023-09-19T12:03:33;7.43;;;2.00;;
79212;SDS011;68639;52.380;9.822;2023-09-19T12:06:00;12.23;;;2.70;;
79212;SDS011;68639;52.380;9.822;2023-09-19T12:08:27;10.50;;;2.78;;
79212;SDS011;68639;52.380;9.822;2023-09-19T12:10:53;10.48;;;2.75;;
79212;SDS011;68639;52.380;9.822;2023-09-19T12:13:18;10.65;;;2.47;;
79212;SDS011;68639;52.380;9.822;2023-09-19T12:15:43;10.32;;;2.70;;
79212;SDS011;68639;52.380;9.822;2023-09-19T12:18:10;10.20;;;2.95;;
79212;SDS011;68639;52.380;9.822;2023-09-19T12:20:44;6.93;;;2.03;;
79212;SDS011;68639;52.380;9.822;2023-09-19T12:23:14;11.18;;;2.70;;
79212;SDS011;68639;52.380;9.822;2023-09-19T12:25:43;23.77;;;3.20;;
79212;SDS011;68639;52.380;9.822;2023-09-19T12:28:19;12.15;;;2.22;;
79212;SDS011;68639;52.380;9.822;2023-09-19T12:30:46;15.05;;;2.55;;
79212;SDS011;68639;52.380;9.822;2023-09-19T12:33:18;11.57;;;2.95;;
79212;SDS011;68639;52.380;9.822;2023-09-19T12:35:50;13.43;;;2.85;;
79212;SDS011;68639;52.380;9.822;2023-09-19T12:38:27;8.55;;;2.55;;
79212;SDS011;68639;52.380;9.822;2023-09-19T12:40:54;16.10;;;2.78;;
79212;SDS011;68639;52.380;9.822;2023-09-19T12:43:20;9.63;;;2.25;;
79212;SDS011;68639;52.380;9.822;2023-09-19T12:45:45;12.43;;;2.63;;
79212;SDS011;68639;52.380;9.822;2023-09-19T12:48:25;10.52;;;3.03;;
79212;SDS011;68639;52.380;9.822;2023-09-19T12:51:00;8.70;;;2.47;;
79212;SDS011;68639;52.380;9.822;2023-09-19T12:53:25;16.55;;;2.80;;
79212;SDS011;68639;52.380;9.822;2023-09-19T12:56:00;10.10;;;2.97;;
79212;SDS011;68639;52.380;9.822;2023-09-19T12:58:25;10.65;;;2.90;;
79212;SDS011;68639;52.380;9.822;2023-09-19T13:00:50;16.15;;;2.80;;
79212;SDS011;68639;52.380;9.822;2023-09-19T13:05:56;10.55;;;2.72;;
79212;SDS011;68639;52.380;9.822;2023-09-19T13:13:26;13.10;;;2.55;;
79212;SDS011;68639;52.380;9.822;2023-09-19T13:15:53;8.10;;;2.60;;
79212;SDS011;68639;52.380;9.822;2023-09-19T13:18:18;7.50;;;2.22;;
79212;SDS011;68639;52.380;9.822;2023-09-19T13:20:53;10.02;;;2.78;;
79212;SDS011;68639;52.380;9.822;2023-09-19T13:23:30;9.80;;;3.20;;
79212;SDS011;68639;52.380;9.822;2023-09-19T13:25:56;9.93;;;2.53;;
79212;SDS011;68639;52.380;9.822;2023-09-19T13:28:21;9.03;;;2.27;;
79212;SDS011;68639;52.380;9.822;2023-09-19T13:30:46;10.20;;;2.85;;
79212;SDS011;68639;52.380;9.822;2023-09-19T13:33:13;15.95;;;3.13;;
79212;SDS011;68639;52.380;9.822;2023-09-19T13:35:44;9.35;;;2.58;;
79212;SDS011;68639;52.380;9.822;2023-09-19T13:38:09;10.88;;;2.60;;
79212;SDS011;68639;52.380;9.822;2023-09-19T13:40:36;7.97;;;2.55;;
79212;SDS011;68639;52.380;9.822;2023-09-19T13:43:02;11.23;;;2.63;;
79212;SDS011;68639;52.380;9.822;2023-09-19T13:45:27;12.32;;;2.70;;
79212;SDS011;68639;52.380;9.822;2023-09-19T13:47:55;8.80;;;2.60;;
79212;SDS011;68639;52.380;9.822;2023-09-19T13:50:21;8.93;;;2.25;;
79212;SDS011;68639;52.380;9.822;2023-09-19T13:52:49;9.25;;;2.75;;
79212;SDS011;68639;52.380;9.822;2023-09-19T13:55:16;10.27;;;2.72;;
79212;SDS011;68639;52.380;9.822;2023-09-19T13:57:45;8.73;;;2.42;;
79212;SDS011;68639;52.380;9.822;2023-09-19T14:00:10;9.93;;;2.30;;
79212;SDS011;68639;52.380;9.822;2023-09-19T14:02:35;10.85;;;2.53;;
79212;SDS011;68639;52.380;9.822;2023-09-19T14:05:00;11.30;;;2.63;;
79212;SDS011;68639;52.380;9.822;2023-09-19T14:07:26;9.07;;;2.50;;
79212;SDS011;68639;52.380;9.822;2023-09-19T14:09:51;11.97;;;2.73;;
79212;SDS011;68639;52.380;9.822;2023-09-19T14:12:17;8.82;;;2.50;;
79212;SDS011;68639;52.380;9.822;2023-09-19T14:14:43;11.05;;;3.10;;
79212;SDS011;68639;52.380;9.822;2023-09-19T14:17:10;9.63;;;2.42;;
79212;SDS011;68639;52.380;9.822;2023-09-19T14:19:35;8.30;;;2.60;;
79212;SDS011;68639;52.380;9.822;2023-09-19T14:22:01;11.75;;;2.33;;
79212;SDS011;68639;52.380;9.822;2023-09-19T14:24:32;10.65;;;2.30;;
79212;SDS011;68639;52.380;9.822;2023-09-19T14:26:57;8.50;;;2.15;;
79212;SDS011;68639;52.380;9.822;2023-09-19T14:29:24;10.25;;;2.70;;
79212;SDS011;68639;52.380;9.822;2023-09-19T14:31:49;11.45;;;2.30;;
79212;SDS011;68639;52.380;9.822;2023-09-19T14:34:16;8.63;;;2.58;;
79212;SDS011;68639;52.380;9.822;2023-09-19T14:36:42;11.88;;;2.80;;
79212;SDS011;68639;52.380;9.822;2023-09-19T14:39:07;9.10;;;2.43;;
79212;SDS011;68639;52.380;9.822;2023-09-19T14:41:33;10.20;;;2.72;;
79212;SDS011;68639;52.380;9.822;2023-09-19T14:43:58;8.02;;;2.40;;
79212;SDS011;68639;52.380;9.822;2023-09-19T14:46:23;6.93;;;2.03;;
79212;SDS011;68639;52.380;9.822;2023-09-19T14:48:52;11.50;;;2.55;;
79212;SDS011;68639;52.380;9.822;2023-09-19T14:51:17;9.35;;;2.40;;
79212;SDS011;68639;52.380;9.822;2023-09-19T14:53:44;7.88;;;2.40;;
79212;SDS011;68639;52.380;9.822;2023-09-19T14:56:16;10.43;;;2.78;;
79212;SDS011;68639;52.380;9.822;2023-09-19T14:58:44;10.10;;;2.20;;
79212;SDS011;68639;52.380;9.822;2023-09-19T15:01:11;7.20;;;2.10;;
79212;SDS011;68639;52.380;9.822;2023-09-19T15:03:36;8.40;;;2.35;;
79212;SDS011;68639;52.380;9.822;2023-09-19T15:06:05;13.73;;;2.78;;
79212;SDS011;68639;52.380;9.822;2023-09-19T15:08:31;12.27;;;2.53;;
79212;SDS011;68639;52.380;9.822;2023-09-19T15:10:56;10.57;;;2.15;;
79212;SDS011;68639;52.380;9.822;2023-09-19T15:13:23;9.77;;;2.90;;
79212;SDS011;68639;52.380;9.822;2023-09-19T15:15:52;9.20;;;2.35;;
79212;SDS011;68639;52.380;9.822;2023-09-19T15:18:18;13.00;;;2.35;;
79212;SDS011;68639;52.380;9.822;2023-09-19T15:20:43;7.75;;;2.47;;
79212;SDS011;68639;52.380;9.822;2023-09-19T15:23:09;9.05;;;2.40;;
79212;SDS011;68639;52.380;9.822;2023-09-19T15:25:34;7.55;;;2.45;;
79212;SDS011;68639;52.380;9.822;2023-09-19T15:28:00;12.40;;;2.65;;